Time;durP1;ratioP1;P1;durP2;ratioP2;P2;SDS_P1;SDS_P2;PMS_P1;PMS_P2;Temp;Humidity;BMP_temperature;BMP_pressure;BME280_temperature;BME280_humidity;BME280_pressure;Samples;Min_cycle;Max_cycle;Signal;HPM_P1;HPM_P2
2021/06/08 00:00:09;;;;;;;11.57;10.37;;;;;;;;;;5067754;28;20183;-74
2021/06/08 00:03:17;;;;;;;10.77;9.67;;;;;;;;;;5035613;28;20633;-74
2021/06/08 00:06:21;;;;;;;10.80;9.77;;;;;;;;;;5046566;28;20685;-74
2021/06/08 00:09:26;;;;;;;11.70;10.53;;;;;;;;;;5052242;28;20204;-74
2021/06/08 00:12:30;;;;;;;13.83;10.30;;;;;;;;;;5061805;28;20201;-74
2021/06/08 00:15:34;;;;;;;10.07;9.17;;;;;;;;;;5055876;28;20264;-74
2021/06/08 00:18:38;;;;;;;10.77;9.77;;;;;;;;;;5069659;28;20193;-74
2021/06/08 00:21:42;;;;;;;10.37;9.47;;;;;;;;;;5063089;28;20195;-74
2021/06/08 00:24:46;;;;;;;12.00;10.57;;;;;;;;;;5074851;28;20183;-74
2021/06/08 00:27:51;;;;;;;11.47;10.47;;;;;;;;;;5060389;28;20197;-74
2021/06/08 00:30:55;;;;;;;11.13;10.03;;;;;;;;;;5051610;28;20197;-74
2021/06/08 00:34:00;;;;;;;11.57;10.43;;;;;;;;;;5054084;28;20180;-74
2021/06/08 00:37:04;;;;;;;11.70;10.40;;;;;;;;;;5067847;28;20582;-74
2021/06/08 00:40:09;;;;;;;11.03;9.93;;;;;;;;;;5064094;28;20678;-74
2021/06/08 00:43:13;;;;;;;10.43;9.47;;;;;;;;;;5034525;28;20177;-74
2021/06/08 00:46:18;;;;;;;10.27;9.37;;;;;;;;;;5063065;28;20207;-74
2021/06/08 00:49:22;;;;;;;11.30;10.20;;;;;;;;;;5057018;28;20191;-74
2021/06/08 00:52:27;;;;;;;11.10;9.97;;;;;;;;;;5070765;28;20204;-74
2021/06/08 00:55:31;;;;;;;11.50;10.13;;;;;;;;;;5054379;28;20196;-74
2021/06/08 00:58:35;;;;;;;11.50;10.10;;;;;;;;;;5062130;28;20195;-74
2021/06/08 01:01:39;;;;;;;11.17;10.13;;;;;;;;;;5063054;28;20192;-74
2021/06/08 01:04:43;;;;;;;11.83;10.33;;;;;;;;;;5067039;28;20556;-74
2021/06/08 01:07:47;;;;;;;10.77;9.67;;;;;;;;;;5039503;28;20188;-74
2021/06/08 01:10:52;;;;;;;10.90;9.80;;;;;;;;;;5060014;28;20594;-74
2021/06/08 01:13:56;;;;;;;10.43;9.43;;;;;;;;;;5045588;28;20183;-74
2021/06/08 01:17:00;;;;;;;11.50;10.40;;;;;;;;;;5053905;28;20227;-74
2021/06/08 01:20:07;;;;;;;12.87;10.03;;;;;;;;;;5054828;28;20191;-74
2021/06/08 01:23:11;;;;;;;11.60;10.30;;;;;;;;;;5072246;28;20203;-74
2021/06/08 01:26:17;;;;;;;9.80;8.97;;;;;;;;;;5062636;28;20225;-74
2021/06/08 01:29:22;;;;;;;11.03;10.03;;;;;;;;;;5071861;28;20191;-74
2021/06/08 01:32:28;;;;;;;12.00;9.83;;;;;;;;;;5053022;28;20543;-74
2021/06/08 01:35:33;;;;;;;11.13;10.03;;;;;;;;;;5071699;28;20191;-74
2021/06/08 01:38:39;;;;;;;13.20;10.07;;;;;;;;;;5044767;28;20189;-74
2021/06/08 01:41:44;;;;;;;10.30;9.30;;;;;;;;;;5043496;28;20197;-75
2021/06/08 01:44:48;;;;;;;10.70;9.60;;;;;;;;;;5059937;28;20207;-74
2021/06/08 01:47:53;;;;;;;11.70;10.60;;;;;;;;;;5053683;28;20192;-74
2021/06/08 01:51:07;;;;;;;11.33;10.20;;;;;;;;;;5060909;28;20184;-74
2021/06/08 01:54:11;;;;;;;11.27;10.17;;;;;;;;;;5066016;28;20207;-74
2021/06/08 01:57:27;;;;;;;11.60;10.50;;;;;;;;;;5053313;28;20226;-74
2021/06/08 02:00:39;;;;;;;11.00;10.00;;;;;;;;;;5037920;28;20209;-74
2021/06/08 02:04:05;;;;;;;12.03;10.77;;;;;;;;;;5063958;28;20195;-74
2021/06/08 02:07:21;;;;;;;11.93;10.77;;;;;;;;;;5073068;28;20578;-74
2021/06/08 02:10:41;;;;;;;12.23;11.03;;;;;;;;;;5058121;28;20566;-74
2021/06/08 02:14:04;;;;;;;11.53;10.43;;;;;;;;;;5069870;28;20201;-74
2021/06/08 02:17:33;;;;;;;12.40;10.53;;;;;;;;;;5052008;28;20227;-74
2021/06/08 02:20:40;;;;;;;14.00;10.23;;;;;;;;;;5052183;28;20190;-73
2021/06/08 02:23:47;;;;;;;12.20;11.00;;;;;;;;;;5039659;28;20670;-74
2021/06/08 02:27:05;;;;;;;11.27;10.20;;;;;;;;;;5043131;28;20592;-74
2021/06/08 02:30:11;;;;;;;11.57;10.57;;;;;;;;;;5041352;28;20194;-74
2021/06/08 02:33:16;;;;;;;14.53;10.90;;;;;;;;;;5053105;28;20184;-74
2021/06/08 02:36:20;;;;;;;11.90;10.80;;;;;;;;;;5041783;28;20327;-75
2021/06/08 02:39:26;;;;;;;12.07;10.93;;;;;;;;;;5076705;28;20202;-75
2021/06/08 02:42:30;;;;;;;13.03;11.83;;;;;;;;;;5062357;28;20582;-74
2021/06/08 02:45:35;;;;;;;12.57;11.37;;;;;;;;;;5059129;28;20558;-74
2021/06/08 02:48:40;;;;;;;12.33;11.03;;;;;;;;;;5063458;28;20184;-74
2021/06/08 02:51:45;;;;;;;12.23;11.03;;;;;;;;;;5068016;28;20204;-74
2021/06/08 02:54:51;;;;;;;12.73;11.53;;;;;;;;;;5063388;28;20191;-74
2021/06/08 02:57:57;;;;;;;12.30;11.10;;;;;;;;;;5071632;28;20211;-74
2021/06/08 03:01:05;;;;;;;12.73;11.43;;;;;;;;;;5070276;28;20196;-74
2021/06/08 03:04:12;;;;;;;12.70;11.07;;;;;;;;;;5061760;28;20191;-75
2021/06/08 03:07:17;;;;;;;12.17;10.97;;;;;;;;;;5068695;28;20218;-74
2021/06/08 03:10:22;;;;;;;12.17;10.97;;;;;;;;;;5062003;28;20214;-74
2021/06/08 03:13:27;;;;;;;12.40;11.13;;;;;;;;;;5068623;28;20273;-74
2021/06/08 03:16:36;;;;;;;11.50;10.40;;;;;;;;;;5076350;28;20718;-74
2021/06/08 03:19:43;;;;;;;12.73;11.50;;;;;;;;;;5065238;28;20201;-75
2021/06/08 03:22:50;;;;;;;13.73;12.23;;;;;;;;;;5070963;28;20205;-74
2021/06/08 03:25:56;;;;;;;13.00;11.80;;;;;;;;;;5057220;28;20224;-74
2021/06/08 03:29:09;;;;;;;13.20;11.93;;;;;;;;;;5065849;28;20184;-74
2021/06/08 03:32:15;;;;;;;13.03;11.63;;;;;;;;;;5067497;28;20202;-75
2021/06/08 03:35:20;;;;;;;13.33;11.93;;;;;;;;;;5040852;28;20191;-74
2021/06/08 03:38:27;;;;;;;14.20;12.53;;;;;;;;;;5057157;28;20205;-74
2021/06/08 03:41:31;;;;;;;13.07;11.77;;;;;;;;;;5074532;28;20195;-74
2021/06/08 03:44:36;;;;;;;13.20;11.50;;;;;;;;;;5075575;28;20195;-74
2021/06/08 03:47:41;;;;;;;14.47;12.70;;;;;;;;;;5069526;28;20222;-74
2021/06/08 03:50:49;;;;;;;13.10;11.90;;;;;;;;;;5057169;28;20187;-74
2021/06/08 03:53:53;;;;;;;13.60;12.13;;;;;;;;;;5054660;28;20183;-74
2021/06/08 03:56:59;;;;;;;15.83;11.67;;;;;;;;;;5058713;28;20725;-74
2021/06/08 04:00:04;;;;;;;12.67;11.37;;;;;;;;;;5056303;28;20214;-74
2021/06/08 04:03:18;;;;;;;12.20;11.00;;;;;;;;;;5064384;28;20191;-74
2021/06/08 04:06:22;;;;;;;13.50;12.10;;;;;;;;;;5074450;28;20246;-74
2021/06/08 04:09:26;;;;;;;12.53;11.37;;;;;;;;;;5073193;28;20211;-73
2021/06/08 04:12:30;;;;;;;13.40;12.10;;;;;;;;;;5035225;28;20540;-74
2021/06/08 04:15:35;;;;;;;13.50;12.30;;;;;;;;;;5055060;28;20198;-74
2021/06/08 04:18:40;;;;;;;13.27;11.80;;;;;;;;;;5063178;28;20215;-75
2021/06/08 04:21:48;;;;;;;14.47;12.73;;;;;;;;;;5051651;28;20214;-74
2021/06/08 04:24:53;;;;;;;13.00;11.70;;;;;;;;;;5072842;28;20191;-74
2021/06/08 04:27:58;;;;;;;12.87;11.50;;;;;;;;;;5074405;28;20203;-74
2021/06/08 04:31:02;;;;;;;13.90;11.07;;;;;;;;;;5058981;28;20218;-74
2021/06/08 04:34:07;;;;;;;13.43;12.13;;;;;;;;;;5059479;28;20189;-74
2021/06/08 04:37:11;;;;;;;12.87;11.57;;;;;;;;;;5073708;28;20586;-74
2021/06/08 04:40:16;;;;;;;12.73;11.57;;;;;;;;;;5068100;28;20198;-74
2021/06/08 04:43:22;;;;;;;13.70;11.63;;;;;;;;;;5066614;28;20553;-74
2021/06/08 04:46:27;;;;;;;12.53;11.33;;;;;;;;;;5059478;28;20232;-73
2021/06/08 04:49:31;;;;;;;10.03;9.03;;;;;;;;;;5054565;28;20199;-74
2021/06/08 04:52:35;;;;;;;12.90;11.03;;;;;;;;;;5069344;28;20207;-74
2021/06/08 04:55:40;;;;;;;15.17;11.37;;;;;;;;;;5060956;28;20737;-74
2021/06/08 04:58:44;;;;;;;11.63;10.40;;;;;;;;;;5063593;28;20211;-74
2021/06/08 05:01:49;;;;;;;14.10;9.60;;;;;;;;;;5074358;28;20187;-74
2021/06/08 05:04:54;;;;;;;10.37;9.33;;;;;;;;;;5068163;28;20659;-74
2021/06/08 05:08:08;;;;;;;11.47;10.00;;;;;;;;;;5054088;28;20168;-75
2021/06/08 05:11:38;;;;;;;10.47;9.53;;;;;;;;;;5073401;28;20578;-73
2021/06/08 05:14:50;;;;;;;9.90;8.83;;;;;;;;;;5079236;28;20425;-74
2021/06/08 05:17:55;;;;;;;10.10;9.20;;;;;;;;;;5064463;28;20203;-74
2021/06/08 05:21:00;;;;;;;13.07;9.60;;;;;;;;;;5033974;28;20181;-73
2021/06/08 05:24:06;;;;;;;12.23;10.00;;;;;;;;;;5039751;28;20184;-74
2021/06/08 05:27:10;;;;;;;9.90;8.90;;;;;;;;;;5052741;28;20672;-74
2021/06/08 05:30:15;;;;;;;9.70;8.80;;;;;;;;;;5061100;28;20191;-74
2021/06/08 05:33:21;;;;;;;17.40;10.20;;;;;;;;;;5076317;22;20701;-75
2021/06/08 05:36:31;;;;;;;13.53;10.10;;;;;;;;;;5061920;28;20216;-74
2021/06/08 05:39:37;;;;;;;13.10;9.00;;;;;;;;;;5073896;28;20214;-75
2021/06/08 05:42:42;;;;;;;12.40;9.63;;;;;;;;;;5073032;28;20527;-74
2021/06/08 05:45:49;;;;;;;16.00;11.10;;;;;;;;;;5072584;28;20214;-74
2021/06/08 05:48:53;;;;;;;13.93;9.80;;;;;;;;;;5073509;28;20534;-74
2021/06/08 05:51:59;;;;;;;15.67;11.40;;;;;;;;;;5072925;28;20191;-75
2021/06/08 05:55:04;;;;;;;10.33;9.43;;;;;;;;;;5073405;28;20183;-74
2021/06/08 05:58:09;;;;;;;11.73;10.47;;;;;;;;;;5073670;28;20203;-74
2021/06/08 06:01:13;;;;;;;17.53;11.33;;;;;;;;;;5072298;28;20672;-75
2021/06/08 06:04:18;;;;;;;12.03;10.73;;;;;;;;;;5073307;28;20184;-74
2021/06/08 06:07:22;;;;;;;20.30;11.43;;;;;;;;;;5072790;28;20220;-74
2021/06/08 06:10:27;;;;;;;13.47;11.17;;;;;;;;;;5072584;28;20195;-74
2021/06/08 06:13:43;;;;;;;13.47;11.30;;;;;;;;;;5058741;28;20195;-73
2021/06/08 06:16:51;;;;;;;11.37;10.27;;;;;;;;;;5072406;28;20742;-74
2021/06/08 06:19:55;;;;;;;15.87;11.20;;;;;;;;;;5072572;28;20574;-74
2021/06/08 06:22:59;;;;;;;18.50;11.47;;;;;;;;;;5071926;28;20203;-74
2021/06/08 06:26:04;;;;;;;17.90;11.20;;;;;;;;;;5072116;28;20215;-73
2021/06/08 06:29:10;;;;;;;16.10;11.50;;;;;;;;;;5072544;28;20195;-74
2021/06/08 06:32:14;;;;;;;15.10;11.67;;;;;;;;;;5072703;28;20684;-74
2021/06/08 06:35:18;;;;;;;19.13;10.97;;;;;;;;;;5072576;28;20194;-73
2021/06/08 06:38:24;;;;;;;12.97;11.57;;;;;;;;;;5072128;28;20212;-73
2021/06/08 06:41:29;;;;;;;13.37;11.27;;;;;;;;;;5065051;28;20196;-73
2021/06/08 06:44:34;;;;;;;16.33;10.80;;;;;;;;;;5071831;28;20680;-75
2021/06/08 06:47:40;;;;;;;22.53;11.67;;;;;;;;;;5071965;28;20222;-74
2021/06/08 06:50:46;;;;;;;15.50;11.30;;;;;;;;;;5073056;28;20585;-74
2021/06/08 06:53:51;;;;;;;15.00;10.87;;;;;;;;;;5072340;28;20187;-73
2021/06/08 06:56:58;;;;;;;11.90;10.33;;;;;;;;;;5071832;28;20720;-74
2021/06/08 07:00:06;;;;;;;12.40;11.10;;;;;;;;;;5052793;28;20211;-74
2021/06/08 07:03:13;;;;;;;13.23;11.93;;;;;;;;;;5060181;28;20195;-74
2021/06/08 07:06:18;;;;;;;13.50;10.63;;;;;;;;;;5072067;28;20218;-74
2021/06/08 07:09:26;;;;;;;12.30;10.00;;;;;;;;;;5072303;28;20193;-74
2021/06/08 07:12:30;;;;;;;12.13;10.57;;;;;;;;;;5072066;28;20197;-74
2021/06/08 07:15:34;;;;;;;16.63;10.63;;;;;;;;;;5072079;28;20199;-74
2021/06/08 07:18:40;;;;;;;11.10;10.00;;;;;;;;;;5071284;28;20222;-74
2021/06/08 07:21:46;;;;;;;12.07;9.73;;;;;;;;;;5072379;28;20195;-74
2021/06/08 07:24:52;;;;;;;10.53;9.43;;;;;;;;;;5075970;28;20191;-73
2021/06/08 07:27:56;;;;;;;11.63;10.40;;;;;;;;;;5075933;28;20223;-74
2021/06/08 07:31:00;;;;;;;10.43;9.43;;;;;;;;;;5075796;28;20665;-74
2021/06/08 07:34:11;;;;;;;10.87;9.77;;;;;;;;;;5075513;28;20206;-74
2021/06/08 07:37:22;;;;;;;10.13;8.67;;;;;;;;;;5075696;28;20212;-73
2021/06/08 07:40:36;;;;;;;9.70;8.70;;;;;;;;;;5051986;28;20513;-74
2021/06/08 07:43:46;;;;;;;12.10;8.87;;;;;;;;;;5063627;28;20188;-74
2021/06/08 07:46:51;;;;;;;10.83;8.80;;;;;;;;;;5055801;28;20221;-74
2021/06/08 07:49:57;;;;;;;11.80;9.17;;;;;;;;;;5056540;28;20519;-74
2021/06/08 07:53:02;;;;;;;9.30;8.40;;;;;;;;;;5074953;28;20180;-74
2021/06/08 07:56:06;;;;;;;10.20;8.82;;;;;;;;;;5075336;28;20223;-74
2021/06/08 07:59:13;;;;;;;9.25;8.15;;;;;;;;;;5069918;28;20216;-74
2021/06/08 08:02:18;;;;;;;10.35;7.05;;;;;;;;;;5075192;28;20197;-74
2021/06/08 08:05:24;;;;;;;10.05;8.90;;;;;;;;;;5074377;28;20180;-74
2021/06/08 08:08:30;;;;;;;9.27;8.18;;;;;;;;;;5074192;28;20177;-74
2021/06/08 08:11:41;;;;;;;10.18;9.13;;;;;;;;;;5063739;28;20180;-74
2021/06/08 08:14:47;;;;;;;10.63;8.07;;;;;;;;;;5074116;28;20197;-75
2021/06/08 08:17:51;;;;;;;11.32;8.40;;;;;;;;;;5074202;28;20200;-73
2021/06/08 08:20:56;;;;;;;9.57;8.57;;;;;;;;;;5074511;28;20194;-73
2021/06/08 08:24:01;;;;;;;23.45;9.35;;;;;;;;;;5073672;28;20194;-74
2021/06/08 08:27:07;;;;;;;8.82;7.75;;;;;;;;;;5074857;28;20217;-74
2021/06/08 08:30:12;;;;;;;9.73;7.50;;;;;;;;;;5062423;28;20186;-74
2021/06/08 08:33:16;;;;;;;8.25;7.53;;;;;;;;;;5074374;28;20210;-74
2021/06/08 08:36:20;;;;;;;10.23;8.40;;;;;;;;;;5066732;28;20220;-74
2021/06/08 08:39:24;;;;;;;10.23;9.20;;;;;;;;;;5057170;28;20218;-74
2021/06/08 08:42:29;;;;;;;11.52;7.95;;;;;;;;;;5073930;28;20193;-74
2021/06/08 08:45:34;;;;;;;10.10;8.57;;;;;;;;;;5072728;28;20190;-74
2021/06/08 08:48:40;;;;;;;10.20;8.10;;;;;;;;;;5074046;28;20203;-74
2021/06/08 08:51:48;;;;;;;10.18;7.30;;;;;;;;;;5074506;28;20199;-73
2021/06/08 08:54:53;;;;;;;7.82;7.22;;;;;;;;;;5073737;28;20654;-74
2021/06/08 08:57:59;;;;;;;13.23;7.07;;;;;;;;;;5073065;28;20189;-74
2021/06/08 09:01:04;;;;;;;8.35;7.25;;;;;;;;;;5073902;28;20652;-74
2021/06/08 09:04:09;;;;;;;8.57;7.72;;;;;;;;;;5053449;28;20181;-73
2021/06/08 09:07:13;;;;;;;9.02;7.70;;;;;;;;;;5054235;28;20220;-73
2021/06/08 09:10:21;;;;;;;11.98;7.72;;;;;;;;;;5053176;28;20179;-74
2021/06/08 09:13:26;;;;;;;13.38;7.32;;;;;;;;;;5053912;28;20172;-74
2021/06/08 09:16:32;;;;;;;8.82;7.13;;;;;;;;;;5054335;28;20218;-75
2021/06/08 09:19:36;;;;;;;13.98;9.05;;;;;;;;;;5054031;28;20216;-74
2021/06/08 09:22:48;;;;;;;9.80;7.50;;;;;;;;;;5070396;28;20187;-74
2021/06/08 09:25:53;;;;;;;10.23;7.95;;;;;;;;;;5078626;28;20222;-73
2021/06/08 09:28:57;;;;;;;7.65;6.97;;;;;;;;;;5072090;28;20647;-74
2021/06/08 09:32:12;;;;;;;7.25;6.65;;;;;;;;;;5073740;28;20183;-74
2021/06/08 09:35:17;;;;;;;8.18;7.35;;;;;;;;;;5053427;28;20184;-73
2021/06/08 09:38:32;;;;;;;9.77;7.80;;;;;;;;;;5061435;28;20199;-74
2021/06/08 09:41:44;;;;;;;7.32;6.63;;;;;;;;;;5072763;28;20638;-74
2021/06/08 09:44:49;;;;;;;9.73;7.10;;;;;;;;;;5072771;28;20543;-74
2021/06/08 09:48:01;;;;;;;8.02;7.15;;;;;;;;;;5073074;28;20191;-74
2021/06/08 09:51:05;;;;;;;6.43;5.47;;;;;;;;;;5073076;28;20650;-74
2021/06/08 09:54:32;;;;;;;7.55;5.00;;;;;;;;;;5072370;28;20187;-74
2021/06/08 09:57:37;;;;;;;6.13;5.35;;;;;;;;;;5058707;28;20219;-74
2021/06/08 10:00:41;;;;;;;6.85;4.93;;;;;;;;;;5071781;28;20211;-73
2021/06/08 10:03:53;;;;;;;7.28;5.72;;;;;;;;;;5073396;28;20187;-74
2021/06/08 10:06:58;;;;;;;5.50;5.05;;;;;;;;;;5072175;28;20211;-74
2021/06/08 10:10:08;;;;;;;9.00;5.10;;;;;;;;;;5072963;28;20191;-74
2021/06/08 10:13:16;;;;;;;5.95;5.28;;;;;;;;;;5073334;28;20184;-74
2021/06/08 10:16:39;;;;;;;5.50;5.00;;;;;;;;;;5073336;28;20211;-74
2021/06/08 10:19:45;;;;;;;7.10;5.75;;;;;;;;;;5072093;28;20208;-74
2021/06/08 10:22:49;;;;;;;5.95;5.38;;;;;;;;;;5072718;28;20650;-74
2021/06/08 10:25:59;;;;;;;6.30;4.75;;;;;;;;;;5073053;28;20682;-74
2021/06/08 10:29:08;;;;;;;5.88;5.10;;;;;;;;;;5073183;28;20176;-74
2021/06/08 10:32:12;;;;;;;5.90;5.40;;;;;;;;;;5072554;28;20524;-74
2021/06/08 10:35:16;;;;;;;5.68;5.10;;;;;;;;;;5072086;28;20175;-74
2021/06/08 10:38:22;;;;;;;5.65;5.03;;;;;;;;;;5072802;28;20639;-75
2021/06/08 10:41:27;;;;;;;6.07;5.43;;;;;;;;;;5052709;28;20192;-75
2021/06/08 10:44:33;;;;;;;6.25;5.65;;;;;;;;;;5072339;28;20638;-75
2021/06/08 10:47:44;;;;;;;6.72;5.03;;;;;;;;;;5072386;28;20211;-75
2021/06/08 10:50:50;;;;;;;6.97;5.75;;;;;;;;;;5072472;28;20191;-74
2021/06/08 10:53:56;;;;;;;5.85;5.30;;;;;;;;;;5072193;28;20533;-74
2021/06/08 10:57:02;;;;;;;6.40;4.85;;;;;;;;;;5067254;28;20219;-74
2021/06/08 11:00:39;;;;;;;8.73;3.90;;;;;;;;;;5061119;28;20547;-75
2021/06/08 11:03:54;;;;;;;7.28;4.03;;;;;;;;;;5075513;28;20196;-74
2021/06/08 11:07:00;;;;;;;4.28;3.45;;;;;;;;;;5075779;28;20689;-74
2021/06/08 11:10:25;;;;;;;4.32;3.70;;;;;;;;;;5075894;28;20195;-74
2021/06/08 11:13:30;;;;;;;4.43;3.97;;;;;;;;;;5082245;28;20636;-75
2021/06/08 11:16:34;;;;;;;5.00;4.22;;;;;;;;;;5075733;28;20230;-75
2021/06/08 11:19:45;;;;;;;5.57;4.47;;;;;;;;;;5064622;28;20212;-74
2021/06/08 11:22:55;;;;;;;4.03;3.63;;;;;;;;;;5075623;28;20200;-75
2021/06/08 11:26:00;;;;;;;4.53;4.13;;;;;;;;;;5074842;28;20222;-74
2021/06/08 11:29:04;;;;;;;6.07;4.10;;;;;;;;;;5074937;28;20179;-75
2021/06/08 11:32:08;;;;;;;4.38;3.97;;;;;;;;;;5072067;28;20196;-74
2021/06/08 11:35:33;;;;;;;4.20;3.80;;;;;;;;;;5113697;22;20234;-72
2021/06/08 11:38:38;;;;;;;7.20;4.35;;;;;;;;;;5078258;28;20180;-72
2021/06/08 11:42:03;;;;;;;9.60;3.90;;;;;;;;;;5095991;28;20688;-73
2021/06/08 11:45:27;;;;;;;16.80;4.90;;;;;;;;;;5075630;28;20200;-73
2021/06/08 11:48:34;;;;;;;7.93;4.10;;;;;;;;;;5067818;28;20627;-73
2021/06/08 11:51:40;;;;;;;7.72;5.78;;;;;;;;;;5091159;28;20183;-72
2021/06/08 11:54:48;;;;;;;5.95;5.45;;;;;;;;;;5080079;28;20203;-73
2021/06/08 11:57:52;;;;;;;6.50;5.85;;;;;;;;;;5079687;28;20191;-72
2021/06/08 12:00:57;;;;;;;6.00;5.40;;;;;;;;;;5094322;28;20203;-72
2021/06/08 12:04:01;;;;;;;7.03;6.32;;;;;;;;;;5086079;28;20654;-72
2021/06/08 12:07:07;;;;;;;5.45;4.72;;;;;;;;;;5076897;28;20214;-71
2021/06/08 12:10:27;;;;;;;5.63;4.85;;;;;;;;;;5075128;28;20184;-72
2021/06/08 12:13:33;;;;;;;5.57;5.07;;;;;;;;;;5075098;28;20539;-73
2021/06/08 12:16:37;;;;;;;5.15;4.63;;;;;;;;;;5086041;28;20290;-73
2021/06/08 12:19:42;;;;;;;5.15;4.28;;;;;;;;;;5093400;28;20179;-72
2021/06/08 12:22:46;;;;;;;4.97;3.95;;;;;;;;;;5093728;28;20195;-73
2021/06/08 12:25:51;;;;;;;4.25;3.95;;;;;;;;;;5080830;28;20214;-72
2021/06/08 12:29:05;;;;;;;4.03;3.38;;;;;;;;;;5075882;28;20184;-72
2021/06/08 12:32:10;;;;;;;5.32;3.33;;;;;;;;;;5074514;28;20176;-73
2021/06/08 12:35:35;;;;;;;7.20;4.90;;;;;;;;;;5077564;28;20207;-72
2021/06/08 12:38:47;;;;;;;8.60;5.20;;;;;;;;;;5083828;28;20184;-72
2021/06/08 12:41:51;;;;;;;7.38;6.53;;;;;;;;;;5074602;28;20553;-73
2021/06/08 12:44:57;;;;;;;7.22;5.95;;;;;;;;;;5086116;28;20653;-72
2021/06/08 12:48:16;;;;;;;7.30;5.40;;;;;;;;;;5092626;28;20184;-72
2021/06/08 12:51:20;;;;;;;8.80;5.97;;;;;;;;;;5054577;28;20631;-73
2021/06/08 12:54:40;;;;;;;6.93;5.85;;;;;;;;;;5073474;28;20195;-72
2021/06/08 12:57:44;;;;;;;6.28;5.68;;;;;;;;;;5083844;28;20202;-72
2021/06/08 13:00:51;;;;;;;5.95;5.45;;;;;;;;;;5092362;28;20202;-71
2021/06/08 13:03:56;;;;;;;9.95;6.00;;;;;;;;;;5081241;28;20191;-72
2021/06/08 13:07:01;;;;;;;10.20;6.05;;;;;;;;;;5092525;28;20211;-72
2021/06/08 13:10:08;;;;;;;7.18;5.72;;;;;;;;;;5054308;28;20180;-72
2021/06/08 13:13:15;;;;;;;6.25;5.65;;;;;;;;;;5074039;28;20512;-73
2021/06/08 13:16:32;;;;;;;9.88;5.95;;;;;;;;;;5075748;28;20221;-72
2021/06/08 13:19:36;;;;;;;6.05;5.20;;;;;;;;;;5073481;28;20176;-71
2021/06/08 13:22:40;;;;;;;6.32;5.75;;;;;;;;;;5084343;28;20181;-72
2021/06/08 13:26:19;;;;;;;8.77;6.03;;;;;;;;;;5094037;28;20215;-72
2021/06/08 13:29:25;;;;;;;4.97;4.57;;;;;;;;;;5074957;28;20187;-72
2021/06/08 13:32:32;;;;;;;6.22;4.82;;;;;;;;;;5084834;28;20186;-72
2021/06/08 13:35:37;;;;;;;6.05;5.20;;;;;;;;;;5064175;28;20204;-72
2021/06/08 13:38:41;;;;;;;5.50;5.00;;;;;;;;;;5089185;28;20186;-72
2021/06/08 13:41:48;;;;;;;9.25;5.72;;;;;;;;;;5093648;28;20203;-73
2021/06/08 13:45:01;;;;;;;6.40;5.30;;;;;;;;;;5093729;28;20186;-73
2021/06/08 13:48:22;;;;;;;10.63;5.90;;;;;;;;;;5093710;28;20174;-73
2021/06/08 13:51:28;;;;;;;6.35;5.60;;;;;;;;;;5093587;28;20183;-72
2021/06/08 13:54:34;;;;;;;6.03;5.53;;;;;;;;;;5092821;28;20538;-73
2021/06/08 14:00:16;;;;;;;12.48;5.90;;;;;;;;;;5093435;28;20566;-73
2021/06/08 14:01:11;;;;;;;6.80;5.65;;;;;;;;;;5093303;28;20226;-73
2021/06/08 14:04:19;;;;;;;5.80;5.30;;;;;;;;;;5093670;28;20190;-72
2021/06/08 14:07:29;;;;;;;5.78;5.25;;;;;;;;;;5093244;28;20206;-73
2021/06/08 14:10:33;;;;;;;6.60;5.68;;;;;;;;;;5093333;28;20168;-72
2021/06/08 14:13:41;;;;;;;6.20;5.50;;;;;;;;;;5093281;28;20178;-73
2021/06/08 14:16:49;;;;;;;6.00;5.00;;;;;;;;;;5093410;28;20209;-73
2021/06/08 14:19:53;;;;;;;7.47;5.68;;;;;;;;;;5093635;28;20179;-73
2021/06/08 14:22:57;;;;;;;5.47;4.97;;;;;;;;;;5093385;28;20177;-73
2021/06/08 14:26:10;;;;;;;9.05;5.07;;;;;;;;;;5093061;28;20725;-73
2021/06/08 14:29:14;;;;;;;6.07;5.57;;;;;;;;;;5092520;28;20181;-73
2021/06/08 14:32:18;;;;;;;7.18;5.07;;;;;;;;;;5096363;28;20177;-73
2021/06/08 14:35:23;;;;;;;7.13;6.43;;;;;;;;;;5096992;28;20664;-73
2021/06/08 14:38:32;;;;;;;6.75;5.88;;;;;;;;;;5097385;28;20177;-73
2021/06/08 14:41:36;;;;;;;6.35;5.47;;;;;;;;;;5097040;28;20204;-73
2021/06/08 14:44:41;;;;;;;8.05;6.15;;;;;;;;;;5097206;28;20202;-73
2021/06/08 14:47:45;;;;;;;6.40;5.82;;;;;;;;;;5097029;28;20202;-73
2021/06/08 14:50:49;;;;;;;6.50;5.90;;;;;;;;;;5096992;28;20178;-73
2021/06/08 14:53:54;;;;;;;7.13;6.25;;;;;;;;;;5097165;28;20531;-73
2021/06/08 14:57:00;;;;;;;6.93;5.82;;;;;;;;;;5084434;28;20689;-73
2021/06/08 15:00:06;;;;;;;7.47;5.28;;;;;;;;;;5096895;28;20181;-73
2021/06/08 15:03:10;;;;;;;6.15;5.55;;;;;;;;;;5096714;28;20172;-73
2021/06/08 15:06:15;;;;;;;5.70;5.18;;;;;;;;;;5095760;28;20557;-73
2021/06/08 15:09:20;;;;;;;6.43;5.38;;;;;;;;;;5096752;28;20181;-73
2021/06/08 15:12:24;;;;;;;6.45;5.85;;;;;;;;;;5096615;28;20178;-73
2021/06/08 15:15:28;;;;;;;6.22;5.00;;;;;;;;;;5078543;28;20638;-72
2021/06/08 15:18:33;;;;;;;5.50;5.00;;;;;;;;;;5073334;28;20186;-72
2021/06/08 15:21:37;;;;;;;6.38;5.20;;;;;;;;;;5086120;28;20667;-72
2021/06/08 15:24:41;;;;;;;5.65;4.60;;;;;;;;;;5079602;28;20641;-72
2021/06/08 15:27:47;;;;;;;6.28;4.78;;;;;;;;;;5078750;28;20525;-72
2021/06/08 15:30:54;;;;;;;6.07;5.40;;;;;;;;;;5089796;28;20190;-72
2021/06/08 15:33:58;;;;;;;8.48;5.03;;;;;;;;;;5095847;28;20209;-73
2021/06/08 15:37:02;;;;;;;7.78;5.63;;;;;;;;;;5055684;28;20719;-72
2021/06/08 15:40:09;;;;;;;11.60;5.55;;;;;;;;;;5075430;28;20192;-72
2021/06/08 15:43:14;;;;;;;5.50;5.00;;;;;;;;;;5094111;28;20175;-73
2021/06/08 15:46:18;;;;;;;7.57;5.30;;;;;;;;;;5095698;28;20564;-72
2021/06/08 15:49:22;;;;;;;11.77;4.83;;;;;;;;;;5095907;28;20183;-73
2021/06/08 15:52:26;;;;;;;5.97;4.57;;;;;;;;;;5095625;28;20632;-73
2021/06/08 15:55:32;;;;;;;6.47;5.47;;;;;;;;;;5095739;28;20179;-72
2021/06/08 15:58:36;;;;;;;7.53;5.70;;;;;;;;;;5096012;28;20243;-73
2021/06/08 16:01:41;;;;;;;6.80;4.53;;;;;;;;;;5095412;28;20219;-73
2021/06/08 16:04:45;;;;;;;7.23;5.30;;;;;;;;;;5094626;28;20179;-72
2021/06/08 16:08:04;;;;;;;8.40;5.20;;;;;;;;;;5095562;28;20195;-72
2021/06/08 16:11:08;;;;;;;6.97;5.33;;;;;;;;;;5095110;28;20173;-73
2021/06/08 16:14:12;;;;;;;6.17;5.30;;;;;;;;;;5095181;28;20172;-72
2021/06/08 16:17:16;;;;;;;9.40;5.80;;;;;;;;;;5094174;28;20210;-72
2021/06/08 16:20:20;;;;;;;8.33;5.40;;;;;;;;;;5094984;28;20516;-73
2021/06/08 16:23:24;;;;;;;23.03;7.27;;;;;;;;;;5094955;28;20167;-72
2021/06/08 16:26:29;;;;;;;6.87;5.63;;;;;;;;;;5094785;28;20223;-72
2021/06/08 16:29:33;;;;;;;11.30;5.40;;;;;;;;;;5105819;28;20179;-72
2021/06/08 16:32:38;;;;;;;8.43;5.47;;;;;;;;;;5094792;28;20175;-72
2021/06/08 16:35:41;;;;;;;6.20;5.60;;;;;;;;;;5094786;28;20226;-72
2021/06/08 16:38:46;;;;;;;6.67;5.10;;;;;;;;;;5105739;28;20183;-72
2021/06/08 16:41:50;;;;;;;7.10;5.27;;;;;;;;;;5094549;28;20199;-73
2021/06/08 16:44:55;;;;;;;7.80;5.27;;;;;;;;;;5094644;28;20179;-72
2021/06/08 16:47:59;;;;;;;6.90;5.63;;;;;;;;;;5094747;28;20187;-73
2021/06/08 16:54:09;;;;;;;5.60;5.00;;;;;;;;;;5093934;28;20175;-72
2021/06/08 16:57:13;;;;;;;5.40;4.90;;;;;;;;;;5093752;28;20206;-73
2021/06/08 17:00:18;;;;;;;7.03;4.80;;;;;;;;;;5094472;28;20179;-72
2021/06/08 17:03:28;;;;;;;9.70;5.43;;;;;;;;;;5094317;28;20203;-73
2021/06/08 17:06:32;;;;;;;5.53;4.73;;;;;;;;;;5094157;28;20558;-72
2021/06/08 17:09:36;;;;;;;5.30;4.80;;;;;;;;;;5094110;28;20175;-72
2021/06/08 17:12:40;;;;;;;8.27;5.43;;;;;;;;;;5093927;28;20175;-72
2021/06/08 17:15:45;;;;;;;7.67;5.43;;;;;;;;;;5093852;28;20680;-72
2021/06/08 17:18:49;;;;;;;6.03;5.50;;;;;;;;;;5093142;28;20182;-72
2021/06/08 17:21:53;;;;;;;7.17;6.20;;;;;;;;;;5093618;28;20206;-72
2021/06/08 17:24:57;;;;;;;10.97;5.70;;;;;;;;;;5092865;28;20206;-72
2021/06/08 17:28:01;;;;;;;7.73;5.47;;;;;;;;;;5093655;28;20261;-72
2021/06/08 17:31:05;;;;;;;6.03;5.53;;;;;;;;;;5093784;28;20542;-72
2021/06/08 17:34:09;;;;;;;6.47;5.87;;;;;;;;;;5093342;28;20202;-72
2021/06/08 17:37:13;;;;;;;7.83;5.70;;;;;;;;;;5092947;28;20218;-73
2021/06/08 17:40:18;;;;;;;7.10;6.23;;;;;;;;;;5052794;28;20195;-72
2021/06/08 17:43:22;;;;;;;8.50;6.50;;;;;;;;;;5052083;28;20216;-72
2021/06/08 17:46:26;;;;;;;6.97;6.20;;;;;;;;;;5063504;28;20215;-73
2021/06/08 17:49:30;;;;;;;7.43;6.10;;;;;;;;;;5052730;28;20203;-73
2021/06/08 17:52:35;;;;;;;7.50;5.67;;;;;;;;;;5052683;28;20188;-73
2021/06/08 17:55:39;;;;;;;8.77;6.30;;;;;;;;;;5051836;28;20539;-73
2021/06/08 17:58:43;;;;;;;9.57;6.37;;;;;;;;;;5051875;28;20180;-73
2021/06/08 18:01:48;;;;;;;6.87;6.20;;;;;;;;;;5052686;28;20204;-73
2021/06/08 18:04:52;;;;;;;7.10;6.40;;;;;;;;;;5052771;28;20177;-73
2021/06/08 18:07:56;;;;;;;8.67;6.63;;;;;;;;;;5052220;28;20180;-73
2021/06/08 18:11:00;;;;;;;7.63;6.73;;;;;;;;;;5052111;28;20658;-73
2021/06/08 18:14:05;;;;;;;8.03;6.30;;;;;;;;;;5052785;28;20172;-73
2021/06/08 18:17:10;;;;;;;7.03;6.33;;;;;;;;;;5051304;28;20278;-73
2021/06/08 18:20:21;;;;;;;8.57;7.13;;;;;;;;;;5051720;28;20180;-73
2021/06/08 18:23:25;;;;;;;7.00;6.27;;;;;;;;;;5052415;28;20536;-73
2021/06/08 18:26:31;;;;;;;7.63;6.83;;;;;;;;;;5052225;28;20219;-73
2021/06/08 18:29:35;;;;;;;8.17;7.37;;;;;;;;;;5051445;28;20218;-73